createdAt,value
2019-01-16T00:00:03.783Z,1019.5
2019-01-16T00:01:03.314Z,1019.5
2019-01-16T00:02:03.599Z,1019.5
2019-01-16T00:03:03.143Z,1019.6
2019-01-16T00:04:02.924Z,1019.5
2019-01-16T00:05:03.258Z,1019.5
2019-01-16T00:06:03.624Z,1019.5
2019-01-16T00:07:03.233Z,1019.5
2019-01-16T00:08:03.715Z,1019.5
2019-01-16T00:09:03.265Z,1019.6
2019-01-16T00:10:03.905Z,1019.5
2019-01-16T00:11:03.485Z,1019.5
2019-01-16T00:12:03.666Z,1019.6
2019-01-16T00:13:03.668Z,1019.5
2019-01-16T00:14:03.158Z,1019.5
2019-01-16T00:15:03.358Z,1019.5
2019-01-16T00:16:02.996Z,1019.4
2019-01-16T00:17:02.887Z,1019.5
2019-01-16T00:18:03.226Z,1019.5
2019-01-16T00:19:03.749Z,1019.5
2019-01-16T00:20:03.720Z,1019.6
2019-01-16T00:21:02.997Z,1019.5
2019-01-16T00:22:03.519Z,1019.5
2019-01-16T00:23:03.041Z,1019.5
2019-01-16T00:24:03.789Z,1019.4
2019-01-16T00:25:03.366Z,1019.4
2019-01-16T00:26:03.720Z,1019.5
2019-01-16T00:27:03.472Z,1019.5
2019-01-16T00:28:02.834Z,1019.4
2019-01-16T00:29:03.101Z,1019.5
2019-01-16T00:30:03.302Z,1019.5
2019-01-16T00:31:03.020Z,1019.5
2019-01-16T00:32:02.976Z,1019.4
2019-01-16T00:33:03.585Z,1019.5
2019-01-16T00:34:03.120Z,1019.5
2019-01-16T00:35:03.442Z,1019.5
2019-01-16T00:36:03.042Z,1019.6
2019-01-16T00:37:03.419Z,1019.4
2019-01-16T00:38:02.859Z,1019.5
2019-01-16T00:39:03.484Z,1019.4
2019-01-16T00:40:03.523Z,1019.4
2019-01-16T00:41:03.316Z,1019.4
2019-01-16T00:42:03.432Z,1019.4
2019-01-16T00:43:03.006Z,1019.4
2019-01-16T00:44:03.323Z,1019.4
2019-01-16T00:45:03.902Z,1019.4
2019-01-16T00:46:02.854Z,1019.4
2019-01-16T00:47:03.432Z,1019.4
2019-01-16T00:48:03.142Z,1019.4
2019-01-16T00:49:03.025Z,1019.4
2019-01-16T00:50:03.266Z,1019.3
2019-01-16T00:51:03.795Z,1019.4
2019-01-16T00:52:03.325Z,1019.3
2019-01-16T00:53:03.086Z,1019.4
2019-01-16T00:54:03.212Z,1019.2
2019-01-16T00:55:03.859Z,1019.3
2019-01-16T00:56:03.865Z,1019.2
2019-01-16T00:57:03.134Z,1019.1
2019-01-16T00:58:03.684Z,1019.2
2019-01-16T00:59:03.853Z,1019.2
2019-01-16T01:00:03.768Z,1019.2
2019-01-16T01:01:03.168Z,1019.2
2019-01-16T01:02:03.584Z,1019.2
2019-01-16T01:03:02.982Z,1019.2
2019-01-16T01:04:02.836Z,1019.2
2019-01-16T01:05:03.348Z,1019.2
2019-01-16T01:06:03.911Z,1019.1
2019-01-16T01:07:03.288Z,1019.2
2019-01-16T01:08:03.047Z,1019.3
2019-01-16T01:09:03.523Z,1019.3
2019-01-16T01:10:03.304Z,1019.3
2019-01-16T01:11:03.026Z,1019.3
2019-01-16T01:12:03.561Z,1019.2
2019-01-16T01:13:03.593Z,1019.1
2019-01-16T01:14:03.046Z,1019.2
2019-01-16T01:15:03.547Z,1019.3
2019-01-16T01:16:03.486Z,1019.3
2019-01-16T01:17:02.895Z,1019.2
2019-01-16T01:18:03.068Z,1019.1
2019-01-16T01:19:03.324Z,1019.2
2019-01-16T01:20:02.726Z,1019.1
2019-01-16T01:21:03.519Z,1019.2
2019-01-16T01:22:03.414Z,1019.2
2019-01-16T01:23:03.550Z,1019.2
2019-01-16T01:24:03.285Z,1019.2
2019-01-16T01:25:03.080Z,1019.2
2019-01-16T01:26:02.974Z,1019.3
2019-01-16T01:27:03.707Z,1019.3
2019-01-16T01:28:03.531Z,1019.3
2019-01-16T01:29:03.473Z,1019.3
2019-01-16T01:30:03.608Z,1019.3
2019-01-16T01:31:02.862Z,1019.3
2019-01-16T01:32:03.497Z,1019.2
2019-01-16T01:33:03.512Z,1019.1
2019-01-16T01:34:03.011Z,1019.1
2019-01-16T01:35:03.380Z,1019.1
2019-01-16T01:36:03.286Z,1019.1
2019-01-16T01:37:03.717Z,1019.2
2019-01-16T01:38:03.053Z,1019.2
2019-01-16T01:39:03.163Z,1019.1
2019-01-16T01:40:03.797Z,1019.1
2019-01-16T01:41:03.647Z,1019.2
2019-01-16T01:42:03.312Z,1019.2
2019-01-16T01:43:03.098Z,1019.2
2019-01-16T01:44:02.845Z,1019.3
2019-01-16T01:45:03.424Z,1019.2
2019-01-16T01:46:03.044Z,1019.2
2019-01-16T01:47:03.609Z,1019.2
2019-01-16T01:48:03.216Z,1019.2
2019-01-16T01:49:02.958Z,1019.2
2019-01-16T01:50:03.255Z,1019.1
2019-01-16T01:51:03.712Z,1019.1
2019-01-16T01:52:02.762Z,1019.1
2019-01-16T01:53:03.864Z,1019.1
2019-01-16T01:54:02.830Z,1019.1
2019-01-16T01:55:03.474Z,1019.1
2019-01-16T01:56:03.548Z,1019.1
2019-01-16T01:57:02.990Z,1019.1
2019-01-16T01:58:03.093Z,1019.1
2019-01-16T01:59:03.268Z,1019.1
2019-01-16T02:00:03.427Z,1019.1
2019-01-16T02:01:03.628Z,1019.1
2019-01-16T02:02:03.637Z,1019.1
2019-01-16T02:03:03.873Z,1019.1
2019-01-16T02:04:03.717Z,1019.1
2019-01-16T02:05:03.752Z,1019.1
2019-01-16T02:06:03.481Z,1019.1
2019-01-16T02:07:02.781Z,1019.1
2019-01-16T02:08:03.666Z,1019
2019-01-16T02:09:03.904Z,1019
2019-01-16T02:10:03.746Z,1019
2019-01-16T02:11:03.106Z,1019
2019-01-16T02:12:03.609Z,1019
2019-01-16T02:13:03.733Z,1019
2019-01-16T02:14:02.907Z,1019
2019-01-16T02:15:03.471Z,1018.9
2019-01-16T02:16:03.593Z,1019
2019-01-16T02:17:03.024Z,1019
2019-01-16T02:18:03.650Z,1019
2019-01-16T02:19:03.153Z,1019
2019-01-16T02:20:03.182Z,1019
2019-01-16T02:21:03.571Z,1019
2019-01-16T02:22:03.630Z,1019
2019-01-16T02:23:03.553Z,1018.9
2019-01-16T02:24:03.684Z,1018.9
2019-01-16T02:25:03.487Z,1018.8
2019-01-16T02:26:03.879Z,1018.9
2019-01-16T02:27:03.065Z,1018.8
2019-01-16T02:28:03.375Z,1018.8
2019-01-16T02:29:03.409Z,1018.8
2019-01-16T02:30:03.269Z,1018.8
2019-01-16T02:31:03.293Z,1018.8
2019-01-16T02:32:03.724Z,1018.8
2019-01-16T02:33:03.594Z,1018.8
2019-01-16T02:34:03.774Z,1018.7
2019-01-16T02:35:03.769Z,1018.8
2019-01-16T02:36:03.588Z,1018.8
2019-01-16T02:37:03.572Z,1018.6
2019-01-16T02:38:02.946Z,1018.7
2019-01-16T02:39:03.156Z,1018.7
2019-01-16T02:40:03.075Z,1018.8
2019-01-16T02:41:02.912Z,1018.8
2019-01-16T02:42:02.940Z,1018.8
2019-01-16T02:43:02.810Z,1018.5
2019-01-16T02:44:03.239Z,1018.6
2019-01-16T02:45:03.643Z,1018.7
2019-01-16T02:46:03.353Z,1018.6
2019-01-16T02:47:03.287Z,1018.6
2019-01-16T02:48:03.152Z,1018.6
2019-01-16T02:49:02.970Z,1018.5
2019-01-16T02:50:03.527Z,1018.5
2019-01-16T02:51:03.318Z,1018.5
2019-01-16T02:52:04.170Z,1018.5
2019-01-16T02:53:03.885Z,1018.6
2019-01-16T02:54:02.896Z,1018.6
2019-01-16T02:55:03.331Z,1018.6
2019-01-16T02:56:03.484Z,1018.6
2019-01-16T02:57:03.089Z,1018.7
2019-01-16T02:58:03.408Z,1018.6
2019-01-16T02:59:03.215Z,1018.6
2019-01-16T03:00:03.059Z,1018.6
2019-01-16T03:01:03.643Z,1018.6
2019-01-16T03:02:03.801Z,1018.6
2019-01-16T03:03:02.976Z,1018.5
2019-01-16T03:04:03.045Z,1018.6
2019-01-16T03:05:03.145Z,1018.5
2019-01-16T03:06:03.930Z,1018.5
2019-01-16T03:07:03.397Z,1018.6
2019-01-16T03:08:02.857Z,1018.5
2019-01-16T03:09:03.590Z,1018.6
2019-01-16T03:10:03.441Z,1018.6
2019-01-16T03:11:02.964Z,1018.5
2019-01-16T03:12:03.389Z,1018.6
2019-01-16T03:13:03.272Z,1018.6
2019-01-16T03:14:03.922Z,1018.5
2019-01-16T03:15:03.419Z,1018.6
2019-01-16T03:16:03.064Z,1018.5
2019-01-16T03:17:03.693Z,1018.6
2019-01-16T03:18:03.033Z,1018.5
2019-01-16T03:19:05.161Z,1018.4
2019-01-16T03:20:03.673Z,1018.4
2019-01-16T03:21:03.105Z,1018.4
2019-01-16T03:22:03.822Z,1018.4
2019-01-16T03:23:03.204Z,1018.3
2019-01-16T03:24:03.685Z,1018.5
2019-01-16T03:25:03.935Z,1018.3
2019-01-16T03:26:03.265Z,1018.3
2019-01-16T03:27:03.235Z,1018.3
2019-01-16T03:28:03.261Z,1018.3
2019-01-16T03:29:02.836Z,1018.3
2019-01-16T03:30:03.651Z,1018.3
2019-01-16T03:31:03.737Z,1018.2
2019-01-16T03:32:03.283Z,1018.3
2019-01-16T03:33:03.576Z,1018.2
2019-01-16T03:34:02.895Z,1018.2
2019-01-16T03:35:03.588Z,1018.3
2019-01-16T03:36:03.002Z,1018.3
2019-01-16T03:37:03.050Z,1018.2
2019-01-16T03:38:03.383Z,1018.4
2019-01-16T03:39:02.879Z,1018.4
2019-01-16T03:40:03.925Z,1018.4
2019-01-16T03:41:03.323Z,1018.3
2019-01-16T03:42:03.156Z,1018.4
2019-01-16T03:43:03.473Z,1018.3
2019-01-16T03:44:03.586Z,1018.4
2019-01-16T03:45:03.724Z,1018.5
2019-01-16T03:46:02.994Z,1018.4
2019-01-16T03:47:03.518Z,1018.5
2019-01-16T03:48:03.699Z,1018.4
2019-01-16T03:49:03.316Z,1018.4
2019-01-16T03:50:02.979Z,1018.4
2019-01-16T03:51:02.846Z,1018.3
2019-01-16T03:52:02.986Z,1018.3
2019-01-16T03:53:03.782Z,1018.3
2019-01-16T03:54:03.294Z,1018.3
2019-01-16T03:55:03.196Z,1018.3
2019-01-16T03:56:03.231Z,1018.3
2019-01-16T03:57:02.967Z,1018.3
2019-01-16T03:58:02.970Z,1018.3
2019-01-16T03:59:03.752Z,1018.3
2019-01-16T04:00:03.677Z,1018.3
2019-01-16T04:01:03.315Z,1018.3
2019-01-16T04:02:02.982Z,1018.4
2019-01-16T04:03:03.695Z,1018.3
2019-01-16T04:04:03.930Z,1018.3
2019-01-16T04:05:03.686Z,1018.4
2019-01-16T04:06:03.937Z,1018.3
2019-01-16T04:07:03.156Z,1018.3
2019-01-16T04:08:03.252Z,1018.3
2019-01-16T04:09:03.287Z,1018.2
2019-01-16T04:10:03.149Z,1018.2
2019-01-16T04:11:03.697Z,1018.2
2019-01-16T04:12:03.009Z,1018.2
2019-01-16T04:13:03.445Z,1018.2
2019-01-16T04:14:02.984Z,1018.2
2019-01-16T04:15:03.388Z,1018.2
2019-01-16T04:16:03.156Z,1018.3
2019-01-16T04:17:02.916Z,1018.2
2019-01-16T04:18:03.295Z,1018.2
2019-01-16T04:19:03.516Z,1018.2
2019-01-16T04:20:03.224Z,1018.2
2019-01-16T04:21:02.933Z,1018.2
2019-01-16T04:22:03.090Z,1018.2
2019-01-16T04:23:03.130Z,1018.3
2019-01-16T04:24:03.286Z,1018.3
2019-01-16T04:25:03.535Z,1018.3
2019-01-16T04:26:03.390Z,1018.3
2019-01-16T04:27:03.722Z,1018.2
2019-01-16T04:28:03.697Z,1018.2
2019-01-16T04:29:02.889Z,1018.2
2019-01-16T04:30:02.866Z,1018.2
2019-01-16T04:31:03.784Z,1018.2
2019-01-16T04:32:03.534Z,1018.1
2019-01-16T04:33:03.635Z,1018.1
2019-01-16T04:34:03.081Z,1018.2
2019-01-16T04:35:03.428Z,1018.2
2019-01-16T04:36:02.965Z,1018.1
2019-01-16T04:37:03.190Z,1018.2
2019-01-16T04:38:03.116Z,1018.2
2019-01-16T04:39:03.105Z,1018.1
2019-01-16T04:40:03.191Z,1018.1
2019-01-16T04:41:03.293Z,1018.1
2019-01-16T04:42:03.264Z,1018
2019-01-16T04:43:03.034Z,1018
2019-01-16T04:44:04.007Z,1018.1
2019-01-16T04:45:03.038Z,1018
2019-01-16T04:46:03.626Z,1018
2019-01-16T04:47:03.643Z,1018
2019-01-16T04:48:02.896Z,1018
2019-01-16T04:49:03.497Z,1018
2019-01-16T04:50:03.283Z,1018.1
2019-01-16T04:51:03.241Z,1018
2019-01-16T04:52:03.652Z,1018.1
2019-01-16T04:53:02.857Z,1018
2019-01-16T04:54:03.165Z,1018
2019-01-16T04:55:03.135Z,1018
2019-01-16T04:56:02.957Z,1017.9
2019-01-16T04:57:02.979Z,1017.9
2019-01-16T04:58:03.020Z,1018
2019-01-16T04:59:02.926Z,1017.9
2019-01-16T05:00:03.113Z,1017.9
2019-01-16T05:01:03.484Z,1017.9
2019-01-16T05:02:03.216Z,1017.9
2019-01-16T05:03:03.677Z,1018
2019-01-16T05:04:03.737Z,1017.9
2019-01-16T05:05:03.671Z,1017.9
2019-01-16T05:06:03.432Z,1018
2019-01-16T05:07:03.562Z,1018
2019-01-16T05:08:03.845Z,1018
2019-01-16T05:09:03.292Z,1018.1
2019-01-16T05:10:03.421Z,1018.1
2019-01-16T05:11:03.065Z,1017.9
2019-01-16T05:12:03.063Z,1017.9
2019-01-16T05:13:02.739Z,1017.8
2019-01-16T05:14:03.911Z,1017.8
2019-01-16T05:15:03.147Z,1017.9
2019-01-16T05:16:03.590Z,1017.8
2019-01-16T05:17:03.344Z,1017.9
2019-01-16T05:18:03.613Z,1018.1
2019-01-16T05:19:03.573Z,1018.1
2019-01-16T05:20:03.709Z,1018.1
2019-01-16T05:21:02.775Z,1018
2019-01-16T05:22:02.983Z,1018.1
2019-01-16T05:23:02.896Z,1018.1
2019-01-16T05:24:03.080Z,1018.1
2019-01-16T05:25:03.038Z,1018
2019-01-16T05:26:03.422Z,1018.1
2019-01-16T05:27:02.955Z,1018.1
2019-01-16T05:28:03.591Z,1018.1
2019-01-16T05:29:03.379Z,1018.2
2019-01-16T05:30:03.395Z,1018.2
2019-01-16T05:31:02.787Z,1018.2
2019-01-16T05:32:03.441Z,1018.2
2019-01-16T05:33:03.670Z,1018.2
2019-01-16T05:34:03.291Z,1018.1
2019-01-16T05:35:03.119Z,1018
2019-01-16T05:36:03.847Z,1018.1
2019-01-16T05:37:03.012Z,1018.1
2019-01-16T05:38:02.950Z,1018.1
2019-01-16T05:39:03.008Z,1018.1
2019-01-16T05:40:03.869Z,1018.1
2019-01-16T05:41:03.672Z,1018.1
2019-01-16T05:42:02.979Z,1018.1
2019-01-16T05:43:03.293Z,1018.1
2019-01-16T05:44:03.011Z,1018
2019-01-16T05:45:03.537Z,1018.1
2019-01-16T05:46:03.725Z,1018.1
2019-01-16T05:47:03.547Z,1018.1
2019-01-16T05:48:03.297Z,1018.2
2019-01-16T05:49:03.507Z,1018.1
2019-01-16T05:50:03.612Z,1018.1
2019-01-16T05:51:02.850Z,1018.2
2019-01-16T05:52:03.560Z,1018.1
2019-01-16T05:53:03.615Z,1018.1
2019-01-16T05:54:03.207Z,1018.1
2019-01-16T05:55:03.821Z,1018.1
2019-01-16T05:56:03.025Z,1018.1
2019-01-16T05:57:02.936Z,1018.2
2019-01-16T05:58:03.846Z,1018.2
2019-01-16T05:59:03.070Z,1018.1
2019-01-16T06:00:03.512Z,1018.1
2019-01-16T06:01:03.651Z,1018.1
2019-01-16T06:02:02.960Z,1018.1
2019-01-16T06:03:03.541Z,1018.1
2019-01-16T06:04:03.552Z,1018.1
2019-01-16T06:05:03.429Z,1018.2
2019-01-16T06:06:03.248Z,1018
2019-01-16T06:07:02.859Z,1018.1
2019-01-16T06:08:03.501Z,1018.1
2019-01-16T06:09:03.268Z,1018.1
2019-01-16T06:10:02.944Z,1018
2019-01-16T06:11:03.023Z,1018.1
2019-01-16T06:12:03.558Z,1018
2019-01-16T06:13:03.791Z,1018
2019-01-16T06:14:03.061Z,1018.1
2019-01-16T06:15:02.901Z,1018.1
2019-01-16T06:16:03.589Z,1018.1
2019-01-16T06:17:03.476Z,1018
2019-01-16T06:18:03.489Z,1018.1
2019-01-16T06:19:03.127Z,1018
2019-01-16T06:20:03.578Z,1018
2019-01-16T06:21:02.998Z,1018
2019-01-16T06:22:03.687Z,1018
2019-01-16T06:23:03.792Z,1017.9
2019-01-16T06:24:03.580Z,1018.1
2019-01-16T06:25:03.408Z,1018
2019-01-16T06:26:02.919Z,1017.9
2019-01-16T06:27:02.876Z,1018
2019-01-16T06:28:03.312Z,1018
2019-01-16T06:29:03.581Z,1018
2019-01-16T06:30:03.478Z,1017.9
2019-01-16T06:31:03.308Z,1018
2019-01-16T06:32:03.680Z,1018
2019-01-16T06:33:03.892Z,1017.9
2019-01-16T06:34:03.813Z,1018.1
2019-01-16T06:35:03.454Z,1017.8
2019-01-16T06:36:03.431Z,1018.1
2019-01-16T06:37:03.048Z,1018.1
2019-01-16T06:38:02.984Z,1017.9
2019-01-16T06:39:03.872Z,1018.1
2019-01-16T06:40:03.797Z,1018.1
2019-01-16T06:41:03.422Z,1018.1
2019-01-16T06:42:03.520Z,1018.2
2019-01-16T06:43:03.354Z,1018.1
2019-01-16T06:44:03.466Z,1018.2
2019-01-16T06:45:03.012Z,1018.1
2019-01-16T06:46:03.310Z,1018.1
2019-01-16T06:47:03.432Z,1018.1
2019-01-16T06:48:02.805Z,1018
2019-01-16T06:49:02.991Z,1018.1
2019-01-16T06:50:03.155Z,1018
2019-01-16T06:51:03.811Z,1018.1
2019-01-16T06:52:03.676Z,1018
2019-01-16T06:53:03.149Z,1018.1
2019-01-16T06:54:02.797Z,1018.1
2019-01-16T06:55:03.340Z,1018
2019-01-16T06:56:03.008Z,1018.2
2019-01-16T06:57:03.103Z,1018.1
2019-01-16T06:58:03.369Z,1018.1
2019-01-16T06:59:03.261Z,1018.2
2019-01-16T07:00:03.238Z,1018.2
2019-01-16T07:01:03.220Z,1018.1
2019-01-16T07:02:03.083Z,1018.2
2019-01-16T07:03:02.739Z,1018.1
2019-01-16T07:04:03.701Z,1018.1
2019-01-16T07:05:03.323Z,1018.1
2019-01-16T07:06:03.492Z,1018
2019-01-16T07:07:03.708Z,1018.1
2019-01-16T07:08:02.788Z,1018.2
2019-01-16T07:09:03.708Z,1018.1
2019-01-16T07:10:03.313Z,1018.2
2019-01-16T07:11:03.797Z,1018.2
2019-01-16T07:12:02.868Z,1018.2
2019-01-16T07:13:03.508Z,1018.2
2019-01-16T07:14:03.148Z,1018.2
2019-01-16T07:15:03.508Z,1018.2
2019-01-16T07:16:03.583Z,1018.1
2019-01-16T07:17:03.739Z,1018.2
2019-01-16T07:18:03.107Z,1018.2
2019-01-16T07:19:03.648Z,1018.2
2019-01-16T07:20:10.325Z,1018.2
2019-01-16T07:21:03.124Z,1018.1
2019-01-16T07:22:03.683Z,1018.1
2019-01-16T07:23:03.052Z,1018.2
2019-01-16T07:24:03.397Z,1018.1
2019-01-16T07:25:02.995Z,1018.1
2019-01-16T07:26:03.454Z,1018.2
2019-01-16T07:27:03.155Z,1018.1
2019-01-16T07:28:03.282Z,1018.1
2019-01-16T07:29:02.976Z,1018.2
2019-01-16T07:30:03.253Z,1018.2
2019-01-16T07:31:03.070Z,1018.1
2019-01-16T07:32:03.545Z,1018.1
2019-01-16T07:33:03.640Z,1018.1
2019-01-16T07:34:03.834Z,1018.1
2019-01-16T07:35:03.601Z,1018.1
2019-01-16T07:36:03.812Z,1018.1
2019-01-16T07:37:03.337Z,1017.9
2019-01-16T07:38:03.434Z,1018
2019-01-16T07:39:03.745Z,1018
2019-01-16T07:40:03.441Z,1018
2019-01-16T07:41:03.069Z,1018
2019-01-16T07:42:03.731Z,1018
2019-01-16T07:43:03.591Z,1018
2019-01-16T07:44:03.532Z,1017.9
2019-01-16T07:45:03.406Z,1017.9
2019-01-16T07:46:03.137Z,1017.9
2019-01-16T07:47:03.079Z,1017.8
2019-01-16T07:48:03.240Z,1017.9
2019-01-16T07:49:03.027Z,1018.1
2019-01-16T07:50:03.435Z,1018.1
2019-01-16T07:51:02.661Z,1017.8
2019-01-16T07:52:02.923Z,1017.9
2019-01-16T07:53:03.061Z,1017.8
2019-01-16T07:54:02.882Z,1017.9
2019-01-16T07:55:03.339Z,1018
2019-01-16T07:56:02.796Z,1017.9
2019-01-16T07:57:03.350Z,1018
2019-01-16T07:58:03.900Z,1018
2019-01-16T07:59:03.486Z,1018.1
2019-01-16T08:00:03.228Z,1018
2019-01-16T08:01:03.121Z,1017.9
2019-01-16T08:02:03.762Z,1018.1
2019-01-16T08:03:03.687Z,1017.9
2019-01-16T08:04:03.343Z,1017.8
2019-01-16T08:05:03.694Z,1018.1
2019-01-16T08:06:03.509Z,1017.9
2019-01-16T08:07:03.223Z,1017.9
2019-01-16T08:08:03.022Z,1017.9
2019-01-16T08:09:03.225Z,1017.9
2019-01-16T08:10:02.869Z,1017.8
2019-01-16T08:11:03.636Z,1017.9
2019-01-16T08:12:03.409Z,1017.8
2019-01-16T08:13:03.303Z,1017.9
2019-01-16T08:14:03.138Z,1017.9
2019-01-16T08:15:03.099Z,1018
2019-01-16T08:16:03.330Z,1017.9
2019-01-16T08:17:03.468Z,1017.8
2019-01-16T08:18:03.370Z,1017.9
2019-01-16T08:19:03.343Z,1017.8
2019-01-16T08:20:03.648Z,1017.8
2019-01-16T08:21:02.739Z,1017.8
2019-01-16T08:22:03.522Z,1017.8
2019-01-16T08:23:02.958Z,1017.7
2019-01-16T08:24:02.846Z,1017.7
2019-01-16T08:25:03.419Z,1017.7
2019-01-16T08:26:03.175Z,1017.8
2019-01-16T08:27:02.955Z,1017.9
2019-01-16T08:28:02.904Z,1017.8
2019-01-16T08:29:03.310Z,1017.9
2019-01-16T08:30:03.278Z,1018
2019-01-16T08:31:03.630Z,1017.8
2019-01-16T08:32:03.281Z,1017.7
2019-01-16T08:33:03.565Z,1017.8
2019-01-16T08:34:02.770Z,1017.8
2019-01-16T08:35:03.397Z,1017.8
2019-01-16T08:36:03.023Z,1017.7
2019-01-16T08:37:03.730Z,1017.7
2019-01-16T08:38:02.865Z,1017.6
2019-01-16T08:39:02.938Z,1017.7
2019-01-16T08:40:03.880Z,1017.8
2019-01-16T08:41:03.531Z,1017.6
2019-01-16T08:42:03.341Z,1017.6
2019-01-16T08:43:03.317Z,1017.6
2019-01-16T08:44:03.569Z,1017.6
2019-01-16T08:45:03.696Z,1017.6
2019-01-16T08:46:03.148Z,1017.6
2019-01-16T08:47:03.040Z,1017.8
2019-01-16T08:48:03.304Z,1017.7
2019-01-16T08:49:03.516Z,1017.7
2019-01-16T08:50:03.187Z,1017.6
2019-01-16T08:51:03.761Z,1017.5
2019-01-16T08:52:02.771Z,1017.5
2019-01-16T08:53:03.171Z,1017.5
2019-01-16T08:54:03.476Z,1017.5
2019-01-16T08:55:03.131Z,1017.5
2019-01-16T08:56:03.091Z,1017.5
2019-01-16T08:57:03.505Z,1017.4
2019-01-16T08:58:02.721Z,1017.4
2019-01-16T08:59:03.012Z,1017.4
2019-01-16T09:00:03.233Z,1017.4
2019-01-16T09:01:03.672Z,1017.3
2019-01-16T09:02:03.244Z,1017.4
2019-01-16T09:03:03.594Z,1017.4
2019-01-16T09:04:03.543Z,1017.4
2019-01-16T09:05:03.388Z,1017.4
2019-01-16T09:06:03.860Z,1017.4
2019-01-16T09:07:03.528Z,1017.4
2019-01-16T09:08:03.179Z,1017.4
2019-01-16T09:09:02.989Z,1017.4
2019-01-16T09:10:03.332Z,1017.2
2019-01-16T09:11:03.397Z,1017.3
2019-01-16T09:12:03.696Z,1017.3
2019-01-16T09:13:03.617Z,1017.3
2019-01-16T09:14:03.882Z,1017.3
2019-01-16T09:15:02.993Z,1017.3
2019-01-16T09:16:03.143Z,1017.3
2019-01-16T09:17:03.854Z,1017.3
2019-01-16T09:18:03.436Z,1017.3
2019-01-16T09:19:03.148Z,1017.1
2019-01-16T09:20:02.970Z,1017
2019-01-16T09:21:03.601Z,1017
2019-01-16T09:22:03.605Z,1017
2019-01-16T09:23:03.552Z,1016.9
2019-01-16T09:24:03.212Z,1016.9
2019-01-16T09:25:02.819Z,1016.9
2019-01-16T09:26:03.457Z,1017
2019-01-16T09:27:03.597Z,1017
2019-01-16T09:28:03.210Z,1017
2019-01-16T09:29:03.612Z,1016.9
2019-01-16T09:30:03.129Z,1017
2019-01-16T09:31:03.332Z,1017
2019-01-16T09:32:03.133Z,1017
2019-01-16T09:33:03.462Z,1017
2019-01-16T09:34:03.907Z,1017
2019-01-16T09:35:03.220Z,1017
2019-01-16T09:36:02.889Z,1016.9
2019-01-16T09:37:03.045Z,1016.8
2019-01-16T09:38:03.749Z,1016.9
2019-01-16T09:39:03.551Z,1016.8
2019-01-16T09:40:03.211Z,1016.9
2019-01-16T09:41:03.525Z,1016.8
2019-01-16T09:42:03.067Z,1016.8
2019-01-16T09:43:02.874Z,1016.9
2019-01-16T09:44:03.026Z,1016.8
2019-01-16T09:45:03.391Z,1016.7
2019-01-16T09:46:02.716Z,1016.8
2019-01-16T09:47:03.531Z,1016.7
2019-01-16T09:48:03.325Z,1016.6
2019-01-16T09:49:03.922Z,1016.5
2019-01-16T09:50:03.549Z,1016.6
2019-01-16T09:51:03.563Z,1016.6
2019-01-16T09:52:03.636Z,1016.6
2019-01-16T09:53:03.062Z,1016.5
2019-01-16T09:54:03.145Z,1016.5
2019-01-16T09:55:03.426Z,1016.3
2019-01-16T09:56:03.047Z,1016.3
2019-01-16T09:57:03.767Z,1016.3
2019-01-16T09:58:02.988Z,1016.3
2019-01-16T09:59:03.686Z,1016.2
2019-01-16T10:00:03.466Z,1016.2
2019-01-16T10:01:03.277Z,1016.2
2019-01-16T10:02:03.480Z,1016.1
2019-01-16T10:03:03.765Z,1016.2
2019-01-16T10:04:03.125Z,1016.2
2019-01-16T10:05:03.132Z,1016.3
2019-01-16T10:06:03.010Z,1016.3
2019-01-16T10:07:03.048Z,1016.2
2019-01-16T10:08:03.134Z,1016.1
2019-01-16T10:09:03.302Z,1016.1
2019-01-16T10:10:03.918Z,1016
2019-01-16T10:11:02.886Z,1016.1
2019-01-16T10:12:02.868Z,1015.9
2019-01-16T10:13:03.614Z,1016
2019-01-16T10:14:03.716Z,1015.9
2019-01-16T10:15:03.069Z,1016
2019-01-16T10:16:03.020Z,1015.9
2019-01-16T10:17:03.163Z,1015.9
2019-01-16T10:18:04.850Z,1016
2019-01-16T10:19:03.704Z,1015.8
2019-01-16T10:20:03.366Z,1015.7
2019-01-16T10:21:03.643Z,1015.9
2019-01-16T10:22:03.657Z,1015.8
2019-01-16T10:23:03.669Z,1015.9
2019-01-16T10:24:03.731Z,1015.9
2019-01-16T10:25:03.324Z,1015.9
2019-01-16T10:26:02.981Z,1015.9
2019-01-16T10:27:02.870Z,1015.9
2019-01-16T10:28:02.813Z,1015.8
2019-01-16T10:29:03.215Z,1015.9
2019-01-16T10:30:03.183Z,1015.8
2019-01-16T10:31:03.515Z,1015.8
2019-01-16T10:32:03.401Z,1015.7
2019-01-16T10:33:03.082Z,1015.8
2019-01-16T10:34:03.030Z,1015.7
2019-01-16T10:35:03.217Z,1015.7
2019-01-16T10:36:03.718Z,1015.6
2019-01-16T10:37:02.938Z,1015.6
2019-01-16T10:38:03.142Z,1015.6
2019-01-16T10:39:03.192Z,1015.6
2019-01-16T10:40:03.900Z,1015.6
2019-01-16T10:41:03.805Z,1015.6
2019-01-16T10:42:03.726Z,1015.6
2019-01-16T10:43:03.640Z,1015.5
2019-01-16T10:44:02.949Z,1015.5
2019-01-16T10:45:03.176Z,1015.3
2019-01-16T10:46:03.533Z,1015.5
2019-01-16T10:47:03.191Z,1015.4
2019-01-16T10:48:03.268Z,1015.3
2019-01-16T10:49:03.785Z,1015.3
2019-01-16T10:50:02.815Z,1015.3
2019-01-16T10:51:03.685Z,1015.2
2019-01-16T10:52:03.476Z,1015.2
2019-01-16T10:53:02.759Z,1015.2
2019-01-16T10:54:03.438Z,1015.3
2019-01-16T10:55:03.161Z,1015.1
2019-01-16T10:56:03.513Z,1015.1
2019-01-16T10:57:03.721Z,1015.1
2019-01-16T10:58:03.622Z,1015.1
2019-01-16T10:59:03.360Z,1015.1
2019-01-16T11:00:03.094Z,1015.1
2019-01-16T11:01:03.433Z,1015.1
2019-01-16T11:02:02.970Z,1015.1
2019-01-16T11:03:03.359Z,1015
2019-01-16T11:04:03.077Z,1015
2019-01-16T11:05:03.587Z,1015
2019-01-16T11:06:03.788Z,1015
2019-01-16T11:07:03.492Z,1015
2019-01-16T11:08:03.673Z,1014.9
2019-01-16T11:09:03.742Z,1014.9
2019-01-16T11:10:03.607Z,1014.9
2019-01-16T11:11:03.082Z,1015
2019-01-16T11:12:03.024Z,1014.9
2019-01-16T11:13:03.372Z,1014.9
2019-01-16T11:14:03.234Z,1014.8
2019-01-16T11:15:02.934Z,1014.8
2019-01-16T11:16:03.630Z,1014.8
2019-01-16T11:17:03.362Z,1014.8
2019-01-16T11:18:03.420Z,1014.7
2019-01-16T11:19:03.321Z,1014.7
2019-01-16T11:20:03.475Z,1014.8
2019-01-16T11:21:11.526Z,1014.7
2019-01-16T11:22:02.870Z,1014.7
2019-01-16T11:23:03.332Z,1014.6
2019-01-16T11:24:03.670Z,1014.7
2019-01-16T11:25:03.616Z,1014.6
2019-01-16T11:26:03.297Z,1014.7
2019-01-16T11:27:03.154Z,1014.7
2019-01-16T11:28:03.343Z,1014.6
2019-01-16T11:29:02.912Z,1014.6
2019-01-16T11:30:03.867Z,1014.6
2019-01-16T11:31:02.972Z,1014.6
2019-01-16T11:32:03.696Z,1014.5
2019-01-16T11:33:03.694Z,1014.6
2019-01-16T11:34:02.972Z,1014.4
2019-01-16T11:35:03.801Z,1014.5
2019-01-16T11:36:03.790Z,1014.6
2019-01-16T11:37:03.670Z,1014.4
2019-01-16T11:38:03.282Z,1014.4
2019-01-16T11:39:03.552Z,1014.4
2019-01-16T11:40:05.423Z,1014.3
2019-01-16T11:41:02.793Z,1014.3
2019-01-16T11:42:03.608Z,1014.2
2019-01-16T11:43:02.992Z,1014.1
2019-01-16T11:44:03.065Z,1014.2
2019-01-16T11:45:03.425Z,1014.2
2019-01-16T11:46:03.230Z,1014.1
2019-01-16T11:47:03.071Z,1014.2
2019-01-16T11:48:03.332Z,1014.3
2019-01-16T11:49:03.079Z,1014
2019-01-16T11:50:02.874Z,1014.2
2019-01-16T11:51:03.139Z,1014.1
2019-01-16T11:52:03.674Z,1014.1
2019-01-16T11:53:03.759Z,1014
2019-01-16T11:54:03.261Z,1014.1
2019-01-16T11:55:03.611Z,1014
2019-01-16T11:56:03.259Z,1014
2019-01-16T11:57:02.852Z,1014
2019-01-16T11:58:03.273Z,1014
2019-01-16T11:59:03.037Z,1013.9
2019-01-16T12:00:03.318Z,1013.9
2019-01-16T12:01:03.243Z,1014
2019-01-16T12:02:03.774Z,1013.8
2019-01-16T12:03:02.759Z,1013.8
2019-01-16T12:04:02.849Z,1013.6
2019-01-16T12:05:03.640Z,1013.7
2019-01-16T12:06:03.532Z,1013.7
2019-01-16T12:07:03.173Z,1013.7
2019-01-16T12:08:03.137Z,1013.6
2019-01-16T12:09:03.218Z,1013.6
2019-01-16T12:10:03.545Z,1013.6
2019-01-16T12:11:02.983Z,1013.6
2019-01-16T12:12:03.245Z,1013.5
2019-01-16T12:13:03.492Z,1013.5
2019-01-16T12:14:03.408Z,1013.5
2019-01-16T12:15:03.779Z,1013.4
2019-01-16T12:16:03.207Z,1013.6
2019-01-16T12:17:03.548Z,1013.5
2019-01-16T12:18:03.241Z,1013.6
2019-01-16T12:19:02.894Z,1013.6
2019-01-16T12:20:03.477Z,1013.5
2019-01-16T12:21:03.283Z,1013.6
2019-01-16T12:22:03.351Z,1013.5
2019-01-16T12:23:03.356Z,1013.3
2019-01-16T12:24:02.721Z,1013.4
2019-01-16T12:25:03.143Z,1013.3
2019-01-16T12:26:08.742Z,1013.4
2019-01-16T12:27:02.776Z,1013.2
2019-01-16T12:28:03.751Z,1013.2
2019-01-16T12:29:03.469Z,1013.2
2019-01-16T12:30:02.886Z,1013.2
2019-01-16T12:31:03.834Z,1013.2
2019-01-16T12:32:03.015Z,1013.2
2019-01-16T12:33:03.766Z,1013.1
2019-01-16T12:34:03.680Z,1013.1